createdAt,value
2018-10-19T00:01:41.929Z,15.34
2018-10-19T00:04:10.237Z,15.31
2018-10-19T00:06:38.548Z,15.26
2018-10-19T00:09:07.491Z,15.21
2018-10-19T00:11:35.184Z,15.15
2018-10-19T00:14:04.071Z,15.09
2018-10-19T00:16:32.372Z,15.03
2018-10-19T00:19:00.103Z,14.96
2018-10-19T00:21:28.411Z,14.90
2018-10-19T00:23:56.725Z,14.83
2018-10-19T00:26:25.179Z,14.78
2018-10-19T00:28:53.947Z,14.72
2018-10-19T00:31:22.249Z,14.67
2018-10-19T00:33:49.982Z,14.61
2018-10-19T00:36:18.871Z,14.56
2018-10-19T00:38:47.188Z,14.53
2018-10-19T00:41:14.996Z,14.49
2018-10-19T00:43:43.812Z,14.46
2018-10-19T00:46:12.112Z,14.42
2018-10-19T00:48:40.422Z,14.40
2018-10-19T00:51:08.600Z,14.37
2018-10-19T00:53:37.333Z,14.34
2018-10-19T00:56:05.707Z,14.32
2018-10-19T00:58:33.441Z,14.28
2018-10-19T01:01:03.298Z,14.23
2018-10-19T01:03:30.346Z,14.18
2018-10-19T01:05:58.657Z,14.13
2018-10-19T01:08:26.968Z,14.08
2018-10-19T01:10:55.900Z,14.03
2018-10-19T01:13:24.144Z,13.98
2018-10-19T01:15:51.942Z,13.92
2018-10-19T01:18:20.838Z,13.89
2018-10-19T01:20:49.160Z,13.86
2018-10-19T01:23:16.971Z,13.82
2018-10-19T01:25:45.192Z,13.80
2018-10-19T01:28:13.509Z,13.77
2018-10-19T01:30:41.823Z,13.75
2018-10-19T01:33:10.214Z,13.72
2018-10-19T01:35:39.012Z,13.68
2018-10-19T01:38:06.746Z,13.66
2018-10-19T01:40:35.053Z,13.63
2018-10-19T01:43:03.360Z,13.61
2018-10-19T01:45:32.247Z,13.60
2018-10-19T01:48:00.559Z,13.58
2018-10-19T01:50:28.289Z,13.54
2018-10-19T01:52:56.616Z,13.52
2018-10-19T01:55:25.490Z,13.47
2018-10-19T01:57:53.800Z,13.43
2018-10-19T02:00:22.110Z,13.38
2018-10-19T02:02:50.697Z,13.32
2018-10-19T02:05:18.430Z,13.27
2018-10-19T02:07:47.665Z,13.22
2018-10-19T02:10:15.391Z,13.17
2018-10-19T02:12:43.702Z,13.11
2018-10-19T02:15:12.638Z,13.06
2018-10-19T02:17:40.354Z,12.98
2018-10-19T02:20:09.241Z,12.88
2018-10-19T02:22:36.974Z,12.78
2018-10-19T02:25:05.306Z,12.71
2018-10-19T02:27:33.593Z,12.64
2018-10-19T02:30:01.944Z,12.59
2018-10-19T02:32:30.808Z,12.53
2018-10-19T02:34:58.560Z,12.48
2018-10-19T02:37:27.423Z,12.42
2018-10-19T02:39:55.737Z,12.37
2018-10-19T02:42:23.476Z,12.33
2018-10-19T02:44:51.810Z,12.29
2018-10-19T02:47:20.098Z,12.27
2018-10-19T02:49:48.408Z,12.26
2018-10-19T02:52:17.293Z,12.24
2018-10-19T02:54:45.598Z,12.23
2018-10-19T02:57:13.375Z,12.20
2018-10-19T02:59:41.775Z,12.19
2018-10-19T03:02:10.536Z,12.18
2018-10-19T03:04:38.848Z,12.16
2018-10-19T03:07:06.591Z,12.13
2018-10-19T03:09:34.898Z,12.10
2018-10-19T03:12:03.785Z,12.07
2018-10-19T03:14:31.514Z,12.03
2018-10-19T03:16:59.881Z,12.02
2018-10-19T03:19:28.168Z,11.98
2018-10-19T03:21:56.613Z,11.96
2018-10-19T03:24:25.377Z,11.93
2018-10-19T03:26:53.142Z,11.89
2018-10-19T03:29:21.536Z,11.87
2018-10-19T03:31:50.341Z,11.84
2018-10-19T03:34:18.645Z,11.80
2018-10-19T03:36:46.377Z,11.74
2018-10-19T03:39:14.747Z,11.70
2018-10-19T03:41:43.593Z,11.65
2018-10-19T03:44:11.505Z,11.59
2018-10-19T03:46:39.625Z,11.53
2018-10-19T03:49:08.582Z,11.49
2018-10-19T03:51:36.247Z,11.44
2018-10-19T03:54:05.131Z,11.39
2018-10-19T03:56:33.448Z,11.28
2018-10-19T03:59:01.242Z,11.11
2018-10-19T04:01:30.072Z,10.97
2018-10-19T04:03:57.847Z,10.88
2018-10-19T04:06:26.113Z,10.81
2018-10-19T04:08:54.448Z,10.75
2018-10-19T04:11:22.753Z,10.69
2018-10-19T04:13:51.064Z,10.64
2018-10-19T04:16:19.951Z,10.63
2018-10-19T04:18:47.716Z,10.61
2018-10-19T04:21:16.670Z,10.52
2018-10-19T04:23:44.936Z,10.41
2018-10-19T04:26:13.251Z,10.31
2018-10-19T04:28:41.586Z,10.21
2018-10-19T04:31:09.902Z,10.11
2018-10-19T04:33:38.230Z,10.05
2018-10-19T04:36:05.979Z,10.03
2018-10-19T04:38:34.300Z,10.00
2018-10-19T04:41:02.644Z,10.03
2018-10-19T04:43:31.209Z,10.07
2018-10-19T04:45:59.872Z,10.10
2018-10-19T04:48:28.235Z,10.15
2018-10-19T04:50:55.992Z,10.18
2018-10-19T04:53:24.873Z,10.18
2018-10-19T04:55:52.650Z,10.19
2018-10-19T04:58:21.502Z,10.19
2018-10-19T05:00:49.818Z,10.16
2018-10-19T05:03:18.190Z,10.14
2018-10-19T05:05:46.499Z,10.13
2018-10-19T05:08:14.216Z,10.13
2018-10-19T05:10:42.782Z,10.13
2018-10-19T05:13:10.890Z,10.14
2018-10-19T05:15:39.753Z,10.15
2018-10-19T05:18:07.793Z,10.13
2018-10-19T05:20:36.757Z,10.13
2018-10-19T05:23:04.762Z,10.11
2018-10-19T05:25:33.416Z,10.12
2018-10-19T05:28:01.161Z,10.11
2018-10-19T05:30:29.500Z,10.12
2018-10-19T05:32:58.457Z,10.11
2018-10-19T05:35:26.729Z,10.10
2018-10-19T05:37:54.484Z,10.08
2018-10-19T05:40:22.791Z,10.03
2018-10-19T05:42:51.715Z,9.97
2018-10-19T05:45:19.450Z,9.94
2018-10-19T05:47:47.767Z,9.93
2018-10-19T05:50:16.754Z,9.92
2018-10-19T05:52:44.997Z,9.90
2018-10-19T05:55:13.316Z,9.88
2018-10-19T05:57:41.626Z,9.86
2018-10-19T06:00:09.975Z,9.84
2018-10-19T06:02:39.125Z,9.84
2018-10-19T06:05:07.395Z,9.85
2018-10-19T06:07:35.653Z,9.88
2018-10-19T06:10:03.984Z,9.89
2018-10-19T06:12:32.300Z,9.91
2018-10-19T06:15:00.649Z,9.95
2018-10-19T06:17:28.391Z,9.99
2018-10-19T06:19:57.167Z,10.05
2018-10-19T06:22:26.700Z,10.12
2018-10-19T06:24:54.303Z,10.19
2018-10-19T06:27:22.126Z,10.26
2018-10-19T06:29:51.311Z,10.36
2018-10-19T06:32:19.071Z,10.46
2018-10-19T06:34:48.297Z,10.54
2018-10-19T06:37:16.125Z,10.63
2018-10-19T06:39:44.356Z,10.73
2018-10-19T06:42:12.673Z,10.76
2018-10-19T06:44:40.990Z,10.80
2018-10-19T06:47:09.404Z,10.82
2018-10-19T06:49:38.219Z,10.86
2018-10-19T06:52:06.541Z,10.90
2018-10-19T06:54:34.849Z,10.95
2018-10-19T06:57:03.173Z,11.00
2018-10-19T06:59:31.545Z,11.06
2018-10-19T07:01:59.275Z,11.15
2018-10-19T07:04:27.562Z,11.21
2018-10-19T07:06:56.482Z,11.26
2018-10-19T07:09:24.797Z,11.32
2018-10-19T07:11:52.883Z,11.37
2018-10-19T07:14:21.796Z,11.43
2018-10-19T07:16:50.113Z,11.51
2018-10-19T07:19:17.842Z,11.61
2018-10-19T07:21:47.005Z,11.71
2018-10-19T07:24:14.598Z,11.82
2018-10-19T07:26:43.503Z,11.92
2018-10-19T07:29:11.266Z,12.03
2018-10-19T07:31:40.625Z,12.15
2018-10-19T07:34:08.378Z,12.24
2018-10-19T07:36:37.281Z,12.32
2018-10-19T07:39:05.037Z,12.39
2018-10-19T07:41:33.936Z,12.46
2018-10-19T07:44:01.723Z,12.53
2018-10-19T07:46:30.579Z,12.60
2018-10-19T07:48:58.329Z,12.68
2018-10-19T07:51:27.222Z,12.74
2018-10-19T07:53:54.980Z,12.81
2018-10-19T07:56:23.274Z,12.88
2018-10-19T07:58:51.585Z,12.95
2018-10-19T08:01:20.622Z,13.03
2018-10-19T08:03:48.789Z,13.11
2018-10-19T08:06:17.098Z,13.17
2018-10-19T08:08:45.612Z,13.23
2018-10-19T08:11:13.398Z,13.31
2018-10-19T08:13:41.685Z,13.37
2018-10-19T08:16:10.577Z,13.44
2018-10-19T08:18:38.894Z,13.50
2018-10-19T08:21:07.214Z,13.56
2018-10-19T08:23:35.111Z,13.63
2018-10-19T08:26:04.389Z,13.68
2018-10-19T08:28:32.667Z,13.74
2018-10-19T08:31:01.568Z,13.80
2018-10-19T08:33:29.300Z,13.85
2018-10-19T08:35:58.178Z,13.91
2018-10-19T08:38:26.614Z,13.98
2018-10-19T08:40:54.938Z,14.04
2018-10-19T08:43:23.234Z,14.09
2018-10-19T08:45:51.556Z,14.14
2018-10-19T08:48:19.285Z,14.21
2018-10-19T08:50:48.500Z,14.27
2018-10-19T08:53:16.937Z,14.31
2018-10-19T08:55:45.122Z,14.39
2018-10-19T08:58:13.835Z,14.46
2018-10-19T09:00:41.476Z,14.53
2018-10-19T09:03:09.843Z,14.60
2018-10-19T09:05:38.681Z,14.67
2018-10-19T09:08:07.633Z,14.72
2018-10-19T09:10:35.948Z,14.78
2018-10-19T09:13:04.538Z,14.81
2018-10-19T09:15:32.272Z,14.83
2018-10-19T09:18:00.583Z,14.85
2018-10-19T09:20:29.471Z,14.87
2018-10-19T09:22:57.250Z,14.90
2018-10-19T09:25:25.516Z,14.94
2018-10-19T09:27:54.712Z,14.98
2018-10-19T09:30:23.033Z,15.01
2018-10-19T09:32:51.336Z,15.05
2018-10-19T09:35:19.807Z,15.09
2018-10-19T09:37:47.394Z,15.11
2018-10-19T09:40:15.792Z,15.15
2018-10-19T09:42:44.049Z,15.18
2018-10-19T09:45:12.404Z,15.17
2018-10-19T09:47:40.729Z,15.17
2018-10-19T09:50:09.571Z,15.21
2018-10-19T09:52:37.936Z,15.25
2018-10-19T09:55:06.267Z,15.31
2018-10-19T09:57:33.993Z,15.37
2018-10-19T10:00:02.314Z,15.46
2018-10-19T10:02:30.710Z,15.57
2018-10-19T10:05:00.443Z,15.66
2018-10-19T10:07:28.162Z,15.76
2018-10-19T10:09:57.746Z,15.85
2018-10-19T10:12:26.061Z,15.96
2018-10-19T10:14:53.857Z,16.07
2018-10-19T10:17:22.686Z,16.21
2018-10-19T10:19:51.058Z,16.31
2018-10-19T10:22:18.791Z,16.39
2018-10-19T10:24:47.712Z,16.47
2018-10-19T10:27:15.413Z,16.47
2018-10-19T10:29:44.617Z,16.43
2018-10-19T10:32:12.964Z,16.43
2018-10-19T10:34:40.688Z,16.45
2018-10-19T10:37:09.662Z,16.47
2018-10-19T10:39:37.922Z,16.50
2018-10-19T10:42:06.235Z,16.52
2018-10-19T10:44:34.553Z,16.57
2018-10-19T10:47:02.953Z,16.64
2018-10-19T10:49:30.608Z,16.72
2018-10-19T10:51:59.550Z,16.93
2018-10-19T10:54:27.244Z,17.25
2018-10-19T10:56:56.141Z,17.62
2018-10-19T10:59:23.868Z,18.11
2018-10-19T11:01:52.186Z,18.62
2018-10-19T11:04:20.502Z,19.14
2018-10-19T11:06:49.413Z,19.66
2018-10-19T11:09:17.148Z,20.21
2018-10-19T11:11:45.534Z,20.63
2018-10-19T11:14:13.848Z,20.73
2018-10-19T11:16:42.741Z,20.73
2018-10-19T11:19:11.140Z,20.72
2018-10-19T11:21:39.036Z,20.55
2018-10-19T11:24:07.192Z,20.11
2018-10-19T11:26:36.024Z,19.70
2018-10-19T11:29:04.672Z,19.31
2018-10-19T11:31:33.320Z,19.13
2018-10-19T11:34:01.715Z,19.02
2018-10-19T11:36:30.293Z,18.86
2018-10-19T11:38:58.616Z,18.93
2018-10-19T11:41:26.345Z,18.83
2018-10-19T11:43:55.462Z,18.73
2018-10-19T11:46:23.781Z,19.15
2018-10-19T11:48:52.885Z,19.47
2018-10-19T11:51:20.541Z,19.83
2018-10-19T11:53:48.876Z,20.08
2018-10-19T11:56:17.187Z,20.24
2018-10-19T11:58:45.511Z,20.39
2018-10-19T12:01:13.904Z,20.74
2018-10-19T12:03:42.767Z,21.13
2018-10-19T12:06:10.899Z,21.44
2018-10-19T12:08:39.580Z,21.77
2018-10-19T12:11:08.045Z,22.01
2018-10-19T12:13:35.775Z,22.25
2018-10-19T12:16:04.259Z,22.43
2018-10-19T12:18:32.983Z,22.63
2018-10-19T12:21:00.770Z,22.75
2018-10-19T12:23:29.036Z,22.85
2018-10-19T12:25:57.949Z,22.73
2018-10-19T12:28:26.604Z,22.68
2018-10-19T12:30:54.943Z,22.59
2018-10-19T12:33:23.704Z,22.60
2018-10-19T12:35:52.017Z,22.63
2018-10-19T12:38:20.656Z,22.73
2018-10-19T12:40:48.391Z,22.92
2018-10-19T12:43:17.312Z,23.06
2018-10-19T12:45:57.876Z,23.18
2018-10-19T12:48:26.223Z,23.31
2018-10-19T12:50:54.589Z,23.40
2018-10-19T12:53:22.865Z,23.35
2018-10-19T12:55:51.596Z,23.42
2018-10-19T12:58:19.907Z,23.60
2018-10-19T13:00:48.685Z,23.88
2018-10-19T13:03:17.075Z,24.21
2018-10-19T13:05:45.328Z,24.54
2018-10-19T13:08:13.076Z,24.84
2018-10-19T13:10:41.391Z,24.48
2018-10-19T13:13:09.724Z,24.03
2018-10-19T13:15:38.031Z,24.26
2018-10-19T13:18:06.973Z,24.80
2018-10-19T13:20:34.677Z,25.42
2018-10-19T13:23:04.553Z,25.99
2018-10-19T13:25:32.197Z,26.46
2018-10-19T13:27:59.933Z,26.89
2018-10-19T13:30:28.250Z,27.25
2018-10-19T13:32:56.623Z,27.56
2018-10-19T13:35:25.488Z,27.68
2018-10-19T13:37:53.222Z,27.76
2018-10-19T13:40:21.540Z,27.81
2018-10-19T13:42:50.436Z,27.83
2018-10-19T13:45:18.551Z,27.74
2018-10-19T13:47:47.424Z,27.62
2018-10-19T13:50:15.744Z,27.47
2018-10-19T13:52:44.337Z,27.37
2018-10-19T13:55:11.845Z,27.16
2018-10-19T13:57:40.760Z,26.95
2018-10-19T14:00:09.082Z,26.63
2018-10-19T14:02:37.792Z,26.28
2018-10-19T14:05:06.085Z,26.02
2018-10-19T14:07:34.364Z,25.82
2018-10-19T14:10:03.289Z,25.77
2018-10-19T14:12:31.321Z,25.83
2018-10-19T14:15:00.282Z,25.81
2018-10-19T14:17:28.545Z,25.84
2018-10-19T14:19:56.862Z,25.69
2018-10-19T14:22:24.629Z,25.45
2018-10-19T14:24:52.983Z,25.25
2018-10-19T14:27:21.288Z,24.89
2018-10-19T14:29:49.628Z,24.52
2018-10-19T14:32:19.206Z,24.43
2018-10-19T14:34:47.308Z,24.40
2018-10-19T14:37:15.294Z,24.08
2018-10-19T14:39:44.185Z,23.36
2018-10-19T14:42:12.913Z,22.58
2018-10-19T14:44:41.209Z,21.86
2018-10-19T14:47:09.905Z,21.12
2018-10-19T14:49:37.589Z,20.45
2018-10-19T14:52:06.499Z,19.89
2018-10-19T14:54:34.837Z,19.37
2018-10-19T14:57:03.482Z,18.94
2018-10-19T14:59:31.209Z,18.56
2018-10-19T15:02:00.118Z,18.23
2018-10-19T15:04:28.441Z,17.93
2018-10-19T15:06:56.222Z,17.66
2018-10-19T15:09:25.616Z,17.40
2018-10-19T15:11:54.096Z,17.16
2018-10-19T15:14:22.148Z,16.96
2018-10-19T15:16:49.890Z,16.74
2018-10-19T15:19:19.106Z,16.56
2018-10-19T15:21:47.800Z,16.38
2018-10-19T15:24:16.148Z,16.24
2018-10-19T15:26:44.764Z,16.08
2018-10-19T15:29:13.107Z,15.93
2018-10-19T15:31:41.730Z,15.73
2018-10-19T15:34:09.480Z,15.48
2018-10-19T15:36:38.488Z,15.25
2018-10-19T15:39:06.933Z,15.09
2018-10-19T15:41:35.288Z,14.96
2018-10-19T15:44:03.242Z,14.84
2018-10-19T15:46:32.241Z,14.71
2018-10-19T15:49:00.178Z,14.56
2018-10-19T15:51:29.192Z,14.38
2018-10-19T15:53:57.558Z,14.23
2018-10-19T15:56:25.852Z,14.09
2018-10-19T15:58:56.087Z,13.94
2018-10-19T16:01:23.902Z,13.80
2018-10-19T16:03:52.266Z,13.66
2018-10-19T16:06:20.665Z,13.52
2018-10-19T16:08:49.572Z,13.38
2018-10-19T16:11:18.178Z,13.24
2018-10-19T16:13:45.919Z,13.11
2018-10-19T16:16:14.836Z,13.00
2018-10-19T16:18:43.163Z,12.90
2018-10-19T16:21:11.554Z,12.78
2018-10-19T16:23:39.896Z,12.69
2018-10-19T16:26:08.220Z,12.60
2018-10-19T16:28:36.706Z,12.52
2018-10-19T16:31:05.323Z,12.45
2018-10-19T16:33:33.720Z,12.38
2018-10-19T16:36:02.455Z,12.27
2018-10-19T16:38:30.208Z,12.18
2018-10-19T16:40:58.620Z,12.11
2018-10-19T16:43:27.683Z,12.05
2018-10-19T16:45:56.467Z,11.98
2018-10-19T16:48:24.310Z,11.89
2018-10-19T16:50:53.276Z,11.79
2018-10-19T16:53:21.772Z,11.71
2018-10-19T16:55:50.149Z,11.60
2018-10-19T16:58:17.911Z,11.49
2018-10-19T17:00:46.241Z,11.39
2018-10-19T17:03:15.243Z,11.30
2018-10-19T17:05:43.529Z,11.21
2018-10-19T17:08:12.064Z,11.13
2018-10-19T17:10:40.490Z,11.07
2018-10-19T17:13:08.858Z,11.00
2018-10-19T17:15:36.604Z,10.97
2018-10-19T17:18:05.587Z,10.90
2018-10-19T17:20:33.962Z,10.85
2018-10-19T17:23:01.714Z,10.82
2018-10-19T17:25:30.082Z,10.77
2018-10-19T17:27:58.962Z,10.71
2018-10-19T17:30:27.384Z,10.64
2018-10-19T17:32:55.755Z,10.58
2018-10-19T17:35:24.347Z,10.56
2018-10-19T17:37:52.103Z,10.54
2018-10-19T17:40:21.017Z,10.46
2018-10-19T17:42:49.414Z,10.39
2018-10-19T17:45:17.717Z,10.33
2018-10-19T17:47:45.542Z,10.30
2018-10-19T17:50:14.397Z,10.29
2018-10-19T17:52:42.738Z,10.26
2018-10-19T17:55:10.488Z,10.21
2018-10-19T17:57:40.068Z,10.13
2018-10-19T18:00:08.442Z,10.07
2018-10-19T18:02:36.141Z,9.99
2018-10-19T18:05:05.061Z,9.93
2018-10-19T18:07:33.402Z,9.88
2018-10-19T18:10:01.192Z,9.83
2018-10-19T18:12:29.476Z,9.82
2018-10-19T18:14:58.384Z,9.81
2018-10-19T18:17:26.403Z,9.78
2018-10-19T18:19:55.302Z,9.76
2018-10-19T18:22:24.109Z,9.74
2018-10-19T18:24:52.114Z,9.67
2018-10-19T18:27:20.467Z,9.64
2018-10-19T18:29:48.208Z,9.64
2018-10-19T18:32:17.199Z,9.60
2018-10-19T18:34:45.454Z,9.57
2018-10-19T18:37:13.206Z,9.55
2018-10-19T18:39:42.218Z,9.53
2018-10-19T18:42:10.576Z,9.50
2018-10-19T18:44:38.741Z,9.47
2018-10-19T18:47:07.720Z,9.46
2018-10-19T18:49:36.001Z,9.45
2018-10-19T18:52:04.433Z,9.37
2018-10-19T18:54:33.016Z,9.32
2018-10-19T18:57:01.318Z,9.31
2018-10-19T18:59:29.642Z,9.24
2018-10-19T19:01:58.189Z,9.16
2018-10-19T19:04:25.917Z,9.07
2018-10-19T19:06:54.874Z,9.00
2018-10-19T19:09:23.304Z,8.94
2018-10-19T19:11:51.793Z,8.91
2018-10-19T19:14:20.135Z,8.86
2018-10-19T19:16:48.505Z,8.81
2018-10-19T19:19:16.397Z,8.78
2018-10-19T19:21:45.163Z,8.78
2018-10-19T19:24:12.928Z,8.76
2018-10-19T19:26:41.874Z,8.76
2018-10-19T19:29:09.665Z,8.75
2018-10-19T19:31:37.954Z,8.74
2018-10-19T19:34:07.818Z,8.73
2018-10-19T19:36:36.158Z,8.70
2018-10-19T19:39:04.507Z,8.69
2018-10-19T19:41:32.856Z,8.66
2018-10-19T19:44:01.251Z,8.65
2018-10-19T19:46:29.649Z,8.61
2018-10-19T19:48:57.480Z,8.60
2018-10-19T19:51:26.456Z,8.58
2018-10-19T19:53:54.827Z,8.57
2018-10-19T19:56:23.140Z,8.53
2018-10-19T19:58:51.460Z,8.51
2018-10-19T20:01:19.246Z,8.51
2018-10-19T20:03:47.972Z,8.52
2018-10-19T20:06:16.371Z,8.51
2018-10-19T20:08:45.269Z,8.51
2018-10-19T20:11:13.711Z,8.47
2018-10-19T20:13:41.959Z,8.43
2018-10-19T20:16:10.454Z,8.40
2018-10-19T20:18:38.813Z,8.37
2018-10-19T20:21:08.040Z,8.34
2018-10-19T20:23:36.970Z,8.34
2018-10-19T20:26:04.858Z,8.36
2018-10-19T20:28:33.829Z,8.36
2018-10-19T20:31:02.138Z,8.36
2018-10-19T20:33:30.499Z,8.32
2018-10-19T20:35:58.832Z,8.27
2018-10-19T20:38:27.251Z,8.25
2018-10-19T20:40:55.045Z,8.22
2018-10-19T20:43:23.905Z,8.21
2018-10-19T20:45:52.231Z,8.19
2018-10-19T20:48:20.631Z,8.17
2018-10-19T20:50:48.954Z,8.14
2018-10-19T20:53:17.535Z,8.12
2018-10-19T20:55:45.403Z,8.10
2018-10-19T20:58:14.305Z,8.08
2018-10-19T21:00:42.690Z,8.09
2018-10-19T21:03:11.032Z,8.09
2018-10-19T21:05:39.431Z,8.07
2018-10-19T21:08:07.783Z,8.07
2018-10-19T21:10:36.093Z,8.09
2018-10-19T21:13:03.900Z,8.08
2018-10-19T21:15:32.217Z,8.08
2018-10-19T21:18:00.532Z,8.05
2018-10-19T21:20:29.468Z,8.01
2018-10-19T21:22:57.894Z,7.99
2018-10-19T21:25:26.279Z,7.96
2018-10-19T21:27:54.074Z,7.94
2018-10-19T21:30:23.132Z,7.93
2018-10-19T21:32:51.598Z,7.92
2018-10-19T21:35:19.396Z,7.92
2018-10-19T21:37:48.372Z,7.93
2018-10-19T21:40:16.697Z,7.93
2018-10-19T21:42:45.068Z,7.91
2018-10-19T21:45:12.811Z,7.89
2018-10-19T21:47:41.238Z,7.82
2018-10-19T21:50:09.599Z,7.78
2018-10-19T21:52:38.499Z,7.71
2018-10-19T21:55:06.816Z,7.67
2018-10-19T21:57:34.541Z,7.67
2018-10-19T22:00:02.856Z,7.70
2018-10-19T22:02:31.757Z,7.71
2018-10-19T22:05:00.141Z,7.72
2018-10-19T22:07:27.847Z,7.74
2018-10-19T22:15:24.882Z,7.70
2018-10-19T22:17:53.496Z,7.68
2018-10-19T22:20:21.817Z,7.67
2018-10-19T22:22:49.614Z,7.65
2018-10-19T22:25:17.963Z,7.66
2018-10-19T22:27:46.782Z,7.66
2018-10-19T22:30:15.113Z,7.65
2018-10-19T22:32:43.422Z,7.59
2018-10-19T22:35:11.790Z,7.54
2018-10-19T22:37:39.483Z,7.52
2018-10-19T22:40:07.802Z,7.52
2018-10-19T22:42:36.706Z,7.53
2018-10-19T22:45:05.033Z,7.52
2018-10-19T22:47:33.345Z,7.45
2018-10-19T22:50:01.378Z,7.36
2018-10-19T22:52:29.404Z,7.30
2018-10-19T22:54:57.810Z,7.24
2018-10-19T22:57:26.044Z,7.25
2018-10-19T22:59:54.370Z,7.24
2018-10-19T23:02:22.697Z,7.17
2018-10-19T23:04:51.006Z,7.11
2018-10-19T23:07:19.910Z,7.07
2018-10-19T23:09:47.783Z,7.03
2018-10-19T23:12:16.557Z,7.02
2018-10-19T23:14:44.873Z,6.99
2018-10-19T23:17:13.251Z,6.97
2018-10-19T23:19:40.942Z,6.93
2018-10-19T23:22:09.848Z,6.84
2018-10-19T23:24:38.169Z,6.82
2018-10-19T23:27:06.481Z,6.82
2018-10-19T23:29:34.218Z,6.86
2018-10-19T23:32:03.120Z,6.88
2018-10-19T23:34:31.445Z,6.88
2018-10-19T23:36:59.184Z,6.88
2018-10-19T23:39:28.083Z,6.86
2018-10-19T23:41:55.821Z,6.90
2018-10-19T23:44:24.717Z,6.94
2018-10-19T23:46:52.460Z,6.94
2018-10-19T23:49:21.358Z,6.93
2018-10-19T23:51:49.712Z,6.92
2018-10-19T23:54:17.458Z,6.91
2018-10-19T23:56:46.350Z,6.91
2018-10-19T23:59:14.163Z,6.91
